createdAt,value
2023-04-22T00:00:54.882Z,98330.50
2023-04-22T00:01:57.765Z,98329.06
2023-04-22T00:03:01.866Z,98329.22
2023-04-22T00:04:05.309Z,98334.28
2023-04-22T00:05:08.783Z,98327.47
2023-04-22T00:06:11.949Z,98333.44
2023-04-22T00:07:15.784Z,98336.03
2023-04-22T00:08:18.552Z,98334.38
2023-04-22T00:09:20.363Z,98329.22
2023-04-22T00:10:23.567Z,98331.91
2023-04-22T00:11:26.704Z,98324.16
2023-04-22T00:12:29.463Z,98331.91
2023-04-22T00:13:31.387Z,98328.56
2023-04-22T00:14:34.154Z,98331.97
2023-04-22T00:15:35.999Z,98329.47
2023-04-22T00:16:39.590Z,98329.75
2023-04-22T00:17:42.693Z,98326.59
2023-04-22T00:18:45.566Z,98329.44
2023-04-22T00:19:47.640Z,98328.72
2023-04-22T00:20:51.039Z,98330.63
2023-04-22T00:21:53.230Z,98328.97
2023-04-22T00:22:57.410Z,98327.22
2023-04-22T00:23:59.197Z,98329.81
2023-04-22T00:25:01.936Z,98327.50
2023-04-22T00:26:04.815Z,98326.66
2023-04-22T00:27:06.977Z,98329.59
2023-04-22T00:28:09.960Z,98327.38
2023-04-22T00:29:11.830Z,98323.22
2023-04-22T00:30:15.023Z,98329.38
2023-04-22T00:31:16.931Z,98325.97
2023-04-22T00:32:22.462Z,98333.69
2023-04-22T00:33:25.214Z,98325.88
2023-04-22T00:34:28.003Z,98325.06
2023-04-22T00:35:29.888Z,98321.47
2023-04-22T00:36:32.673Z,98322.22
2023-04-22T00:37:35.228Z,98320.28
2023-04-22T00:38:40.509Z,98329.59
2023-04-22T00:39:42.592Z,98324.53
2023-04-22T00:40:46.369Z,98328.94
2023-04-22T00:41:48.286Z,98323.78
2023-04-22T00:42:52.232Z,98327.28
2023-04-22T00:43:55.009Z,98325.72
2023-04-22T00:44:58.259Z,98318.97
2023-04-22T00:46:00.776Z,98319.91
2023-04-22T00:47:03.841Z,98317.47
2023-04-22T00:48:06.735Z,98319.59
2023-04-22T00:49:09.780Z,98328.41
2023-04-22T00:50:11.742Z,98323.50
2023-04-22T00:51:14.905Z,98320.09
2023-04-22T00:52:16.778Z,98326.91
2023-04-22T00:53:19.588Z,98320.19
2023-04-22T00:54:23.261Z,98320.44
2023-04-22T00:55:26.306Z,98325.69
2023-04-22T00:56:28.828Z,98329.09
2023-04-22T00:57:32.064Z,98330.84
2023-04-22T00:58:33.956Z,98323.13
2023-04-22T00:59:36.782Z,98323.19
2023-04-22T01:00:39.885Z,98328.41
2023-04-22T01:01:43.226Z,98325.03
2023-04-22T01:02:45.316Z,98322.53
2023-04-22T01:03:49.575Z,98325.13
2023-04-22T01:04:54.168Z,98323.38
2023-04-22T01:05:57.327Z,98322.63
2023-04-22T01:06:59.610Z,98328.63
2023-04-22T01:08:02.582Z,98330.50
2023-04-22T01:09:04.612Z,98329.94
2023-04-22T01:10:10.259Z,98328.19
2023-04-22T01:11:12.404Z,98327.38
2023-04-22T01:12:15.366Z,98332.59
2023-04-22T01:13:17.293Z,98336.00
2023-04-22T01:14:20.694Z,98335.91
2023-04-22T01:15:22.545Z,98328.09
2023-04-22T01:16:25.876Z,98328.19
2023-04-22T01:17:27.996Z,98328.03
2023-04-22T01:18:31.121Z,98332.25
2023-04-22T01:19:33.175Z,98328.91
2023-04-22T01:20:35.990Z,98328.09
2023-04-22T01:21:39.102Z,98325.63
2023-04-22T01:22:43.574Z,98318.81
2023-04-22T01:23:46.996Z,98328.28
2023-04-22T01:24:50.245Z,98327.47
2023-04-22T01:25:52.175Z,98323.19
2023-04-22T01:26:55.678Z,98327.53
2023-04-22T01:27:57.721Z,98322.31
2023-04-22T01:29:02.509Z,98318.81
2023-04-22T01:30:05.754Z,98322.47
2023-04-22T01:31:08.942Z,98312.41
2023-04-22T01:32:11.335Z,98318.56
2023-04-22T01:33:14.328Z,98316.06
2023-04-22T01:34:16.209Z,98316.06
2023-04-22T01:35:19.294Z,98319.47
2023-04-22T01:36:21.098Z,98320.38
2023-04-22T01:37:23.916Z,98326.44
2023-04-22T01:38:25.789Z,98320.63
2023-04-22T01:39:30.263Z,98322.47
2023-04-22T01:40:32.552Z,98325.28
2023-04-22T01:41:35.917Z,98323.72
2023-04-22T01:42:38.181Z,98324.63
2023-04-22T01:43:41.012Z,98320.38
2023-04-22T01:44:43.235Z,98313.50
2023-04-22T01:45:46.796Z,98318.66
2023-04-22T01:46:48.789Z,98318.59
2023-04-22T01:47:51.631Z,98316.00
2023-04-22T01:48:54.976Z,98321.06
2023-04-22T01:49:58.650Z,98319.22
2023-04-22T01:51:00.692Z,98326.13
2023-04-22T01:52:03.455Z,98324.47
2023-04-22T01:53:07.330Z,98323.63
2023-04-22T01:54:11.274Z,98329.59
2023-04-22T01:55:14.815Z,98322.81
2023-04-22T01:56:19.636Z,98312.56
2023-04-22T01:57:21.773Z,98317.72
2023-04-22T01:58:24.577Z,98321.22
2023-04-22T01:59:26.645Z,98317.16
2023-04-22T02:00:29.505Z,98322.47
2023-04-22T02:01:31.489Z,98325.19
2023-04-22T02:02:34.462Z,98314.25
2023-04-22T02:03:36.627Z,98315.16
2023-04-22T02:04:39.673Z,98317.72
2023-04-22T02:05:41.580Z,98322.81
2023-04-22T02:06:44.773Z,98312.50
2023-04-22T02:07:46.670Z,98316.00
2023-04-22T02:08:52.469Z,98319.56
2023-04-22T02:09:54.318Z,98324.78
2023-04-22T02:11:00.792Z,98321.38
2023-04-22T02:12:02.714Z,98319.69
2023-04-22T02:13:05.877Z,98328.28
2023-04-22T02:14:07.679Z,98323.97
2023-04-22T02:15:12.208Z,98319.78
2023-04-22T02:16:14.143Z,98315.66
2023-04-22T02:17:17.965Z,98322.59
2023-04-22T02:18:21.303Z,98315.97
2023-04-22T02:19:24.150Z,98318.72
2023-04-22T02:20:25.925Z,98319.69
2023-04-22T02:21:29.806Z,98323.25
2023-04-22T02:22:32.394Z,98319.03
2023-04-22T02:23:35.359Z,98316.47
2023-04-22T02:24:37.173Z,98315.53
2023-04-22T02:25:40.462Z,98323.25
2023-04-22T02:26:43.623Z,98324.09
2023-04-22T02:27:46.514Z,98318.22
2023-04-22T02:28:48.965Z,98314.88
2023-04-22T02:29:51.753Z,98321.75
2023-04-22T02:30:53.590Z,98318.44
2023-04-22T02:31:59.261Z,98317.75
2023-04-22T02:33:01.539Z,98324.66
2023-04-22T02:34:04.375Z,98314.47
2023-04-22T02:35:07.240Z,98320.34
2023-04-22T02:36:10.217Z,98318.69
2023-04-22T02:37:12.069Z,98322.00
2023-04-22T02:38:15.038Z,98322.91
2023-04-22T02:39:17.725Z,98318.59
2023-04-22T02:40:20.592Z,98327.31
2023-04-22T02:41:22.839Z,98319.59
2023-04-22T02:42:27.238Z,98321.34
2023-04-22T02:43:31.303Z,98316.19
2023-04-22T02:44:33.188Z,98317.91
2023-04-22T02:45:36.012Z,98315.28
2023-04-22T02:46:37.890Z,98314.47
2023-04-22T02:47:40.846Z,98316.13
2023-04-22T02:48:43.038Z,98311.78
2023-04-22T02:49:45.851Z,98319.41
2023-04-22T02:50:47.729Z,98317.75
2023-04-22T02:51:50.760Z,98318.69
2023-04-22T02:52:52.614Z,98315.28
2023-04-22T02:53:55.649Z,98317.91
2023-04-22T02:54:57.451Z,98315.34
2023-04-22T02:56:00.587Z,98320.56
2023-04-22T02:57:03.035Z,98322.41
2023-04-22T02:58:07.152Z,98325.03
2023-04-22T02:59:09.032Z,98315.66
2023-04-22T03:00:12.685Z,98323.38
2023-04-22T03:01:14.591Z,98322.56
2023-04-22T03:02:17.587Z,98322.47
2023-04-22T03:03:34.802Z,98314.00
2023-04-22T03:04:38.387Z,98316.59
2023-04-22T03:05:40.537Z,98319.97
2023-04-22T03:06:43.611Z,98316.59
2023-04-22T03:07:47.441Z,98325.13
2023-04-22T03:08:51.894Z,98316.66
2023-04-22T03:09:55.873Z,98327.88
2023-04-22T03:10:59.253Z,98319.28
2023-04-22T03:12:02.560Z,98316.00
2023-04-22T03:13:07.655Z,98318.56
2023-04-22T03:14:09.578Z,98322.03
2023-04-22T03:15:13.393Z,98319.38
2023-04-22T03:16:16.765Z,98321.88
2023-04-22T03:17:20.618Z,98325.28
2023-04-22T03:18:22.664Z,98318.47
2023-04-22T03:19:25.753Z,98321.88
2023-04-22T03:20:28.482Z,98319.25
2023-04-22T03:21:32.234Z,98321.03
2023-04-22T03:22:35.252Z,98316.91
2023-04-22T03:23:39.418Z,98322.13
2023-04-22T03:24:41.279Z,98319.78
2023-04-22T03:25:45.645Z,98312.97
2023-04-22T03:26:47.449Z,98319.03
2023-04-22T03:27:50.308Z,98321.53
2023-04-22T03:28:54.474Z,98314.66
2023-04-22T03:29:57.272Z,98323.09
2023-04-22T03:30:59.291Z,98315.47
2023-04-22T03:32:02.263Z,98317.03
2023-04-22T03:33:04.292Z,98312.72
2023-04-22T03:34:16.393Z,98313.75
2023-04-22T03:35:20.511Z,98315.53
2023-04-22T03:36:27.379Z,98318.19
2023-04-22T03:37:29.803Z,98323.34
2023-04-22T03:38:32.701Z,98317.44
2023-04-22T03:39:34.499Z,98320.09
2023-04-22T03:40:37.735Z,98321.00
2023-04-22T03:41:49.051Z,98322.09
2023-04-22T03:42:52.391Z,98325.53
2023-04-22T03:43:58.901Z,98331.59
2023-04-22T03:45:03.209Z,98333.34
2023-04-22T03:46:10.832Z,98334.25
2023-04-22T03:47:21.888Z,98333.41
2023-04-22T03:48:29.981Z,98330.03
2023-04-22T03:49:33.560Z,98335.06
2023-04-22T03:50:36.019Z,98327.28
2023-04-22T03:51:39.272Z,98333.09
2023-04-22T03:52:46.382Z,98331.28
2023-04-22T03:53:50.800Z,98326.81
2023-04-22T03:54:55.860Z,98333.63
2023-04-22T03:55:58.675Z,98327.56
2023-04-22T03:57:01.510Z,98330.81
2023-04-22T03:58:04.894Z,98329.91
2023-04-22T03:59:08.093Z,98328.94
2023-04-22T04:00:12.808Z,98330.50
2023-04-22T04:01:24.124Z,98334.56
2023-04-22T04:02:29.674Z,98334.56
2023-04-22T04:03:34.436Z,98332.75
2023-04-22T04:04:38.380Z,98331.84
2023-04-22T04:05:42.364Z,98331.84
2023-04-22T04:06:45.952Z,98332.75
2023-04-22T04:07:47.982Z,98334.34
2023-04-22T04:08:50.978Z,98332.50
2023-04-22T04:09:52.820Z,98336.78
2023-04-22T04:10:56.270Z,98335.75
2023-04-22T04:11:59.198Z,98333.94
2023-04-22T04:13:06.801Z,98331.13
2023-04-22T04:14:20.266Z,98334.28
2023-04-22T04:15:24.421Z,98334.06
2023-04-22T04:16:26.860Z,98327.84
2023-04-22T04:17:36.954Z,98329.41
2023-04-22T04:18:39.977Z,98330.09
2023-04-22T04:19:43.083Z,98331.59
2023-04-22T04:20:45.093Z,98330.66
2023-04-22T04:21:47.933Z,98335.66
2023-04-22T04:22:50.289Z,98333.75
2023-04-22T04:23:53.542Z,98330.78
2023-04-22T04:25:00.114Z,98327.97
2023-04-22T04:26:08.147Z,98334.50
2023-04-22T04:27:13.700Z,98329.94
2023-04-22T04:28:23.266Z,98327.84
2023-04-22T04:29:27.002Z,98324.22
2023-04-22T04:30:41.857Z,98333.25
2023-04-22T04:31:43.916Z,98327.84
2023-04-22T04:32:46.938Z,98329.25
2023-04-22T04:33:50.851Z,98327.25
2023-04-22T04:34:53.961Z,98327.00
2023-04-22T04:35:58.536Z,98326.84
2023-04-22T04:37:06.478Z,98334.38
2023-04-22T04:38:17.921Z,98330.00
2023-04-22T04:39:20.847Z,98337.53
2023-04-22T04:40:23.277Z,98338.28
2023-04-22T04:41:35.712Z,98350.16
2023-04-22T04:42:38.702Z,98342.34
2023-04-22T04:43:47.661Z,98345.50
2023-04-22T04:44:59.847Z,98340.16
2023-04-22T04:46:03.746Z,98338.16
2023-04-22T04:47:10.241Z,98342.22
2023-04-22T04:48:14.363Z,98346.09
2023-04-22T04:49:20.809Z,98347.41
2023-04-22T04:50:30.423Z,98338.41
2023-04-22T04:51:36.101Z,98345.69
2023-04-22T04:52:38.906Z,98343.59
2023-04-22T04:53:41.155Z,98344.88
2023-04-22T04:54:43.901Z,98331.63
2023-04-22T04:55:45.740Z,98332.13
2023-04-22T04:56:57.309Z,98338.66
2023-04-22T04:57:59.794Z,98339.09
2023-04-22T04:59:02.639Z,98337.75
2023-04-22T05:00:08.294Z,98337.16
2023-04-22T05:01:11.779Z,98340.84
2023-04-22T05:02:13.850Z,98343.41
2023-04-22T05:03:17.600Z,98339.88
2023-04-22T05:04:20.526Z,98337.94
2023-04-22T05:05:24.110Z,98338.63
2023-04-22T05:06:27.084Z,98340.94
2023-04-22T05:07:35.506Z,98332.91
2023-04-22T05:08:37.674Z,98336.91
2023-04-22T05:09:44.896Z,98327.72
2023-04-22T05:10:47.534Z,98330.63
2023-04-22T05:11:50.969Z,98326.81
2023-04-22T05:12:55.792Z,98330.00
2023-04-22T05:14:01.298Z,98334.00
2023-04-22T05:15:11.716Z,98324.34
2023-04-22T05:16:15.261Z,98329.59
2023-04-22T05:17:17.219Z,98330.38
2023-04-22T05:18:20.262Z,98325.28
2023-04-22T05:19:22.828Z,98325.22
2023-04-22T05:20:27.837Z,98330.34
2023-04-22T05:21:29.661Z,98321.59
2023-04-22T05:22:32.873Z,98329.97
2023-04-22T05:23:34.733Z,98322.81
2023-04-22T05:24:38.222Z,98331.59
2023-04-22T05:25:40.441Z,98325.50
2023-04-22T05:26:46.678Z,98324.31
2023-04-22T05:27:52.005Z,98325.72
2023-04-22T05:28:55.559Z,98325.56
2023-04-22T05:29:57.641Z,98337.31
2023-04-22T05:31:06.786Z,98334.16
2023-04-22T05:32:08.799Z,98333.69
2023-04-22T05:33:11.751Z,98329.88
2023-04-22T05:34:13.947Z,98326.38
2023-04-22T05:35:17.292Z,98327.31
2023-04-22T05:36:19.358Z,98322.59
2023-04-22T05:37:23.817Z,98324.56
2023-04-22T05:38:26.759Z,98328.59
2023-04-22T05:39:31.700Z,98331.69
2023-04-22T05:40:36.100Z,98323.41
2023-04-22T05:41:40.565Z,98327.91
2023-04-22T05:42:44.719Z,98320.59
2023-04-22T05:43:47.674Z,98326.28
2023-04-22T05:44:53.607Z,98330.34
2023-04-22T05:45:56.302Z,98329.63
2023-04-22T05:47:00.551Z,98330.09
2023-04-22T05:48:02.785Z,98329.97
2023-04-22T05:49:09.630Z,98334.38
2023-04-22T05:50:29.879Z,98325.38
2023-04-22T05:51:39.397Z,98320.63
2023-04-22T05:52:41.279Z,98327.31
2023-04-22T05:53:49.247Z,98325.59
2023-04-22T05:54:51.520Z,98327.03
2023-04-22T05:55:54.418Z,98326.59
2023-04-22T05:56:56.879Z,98332.06
2023-04-22T05:58:00.538Z,98327.06
2023-04-22T05:59:21.985Z,98330.38
2023-04-22T06:00:25.665Z,98325.97
2023-04-22T06:01:43.453Z,98327.47
2023-04-22T06:02:48.858Z,98329.13
2023-04-22T06:03:51.563Z,98326.50
2023-04-22T06:04:54.847Z,98334.41
2023-04-22T06:05:57.474Z,98334.44
2023-04-22T06:07:01.121Z,98335.41
2023-04-22T06:08:03.260Z,98333.97
2023-04-22T06:09:07.067Z,98336.09
2023-04-22T06:10:09.562Z,98336.06
2023-04-22T06:11:12.534Z,98333.88
2023-04-22T06:12:14.608Z,98328.91
2023-04-22T06:13:17.442Z,98331.50
2023-04-22T06:14:20.041Z,98337.25
2023-04-22T06:15:23.319Z,98332.28
2023-04-22T06:16:25.397Z,98337.88
2023-04-22T06:17:28.888Z,98335.91
2023-04-22T06:18:33.133Z,98337.38
2023-04-22T06:19:36.545Z,98334.19
2023-04-22T06:20:39.294Z,98336.72
2023-04-22T06:21:43.152Z,98337.72
2023-04-22T06:22:44.949Z,98339.03
2023-04-22T06:23:48.041Z,98338.84
2023-04-22T06:24:49.921Z,98332.75
2023-04-22T06:25:52.715Z,98331.03
2023-04-22T06:26:56.244Z,98328.88
2023-04-22T06:27:59.514Z,98334.38
2023-04-22T06:29:05.350Z,98338.66
2023-04-22T06:30:12.000Z,98337.97
2023-04-22T06:31:15.413Z,98339.59
2023-04-22T06:32:18.304Z,98335.13
2023-04-22T06:33:20.199Z,98333.91
2023-04-22T06:34:24.560Z,98334.84
2023-04-22T06:35:27.491Z,98341.19
2023-04-22T06:36:32.070Z,98331.72
2023-04-22T06:37:38.129Z,98339.53
2023-04-22T06:38:42.587Z,98336.69
2023-04-22T06:40:15.921Z,98327.41
2023-04-22T06:41:47.804Z,98332.69
2023-04-22T06:43:14.818Z,98330.56
2023-04-22T06:44:43.319Z,98328.03
2023-04-22T06:46:09.171Z,98330.97
2023-04-22T06:47:29.573Z,98329.06
2023-04-22T06:48:43.593Z,98331.50
2023-04-22T06:50:11.942Z,98332.84
2023-04-22T06:51:27.023Z,98329.13
2023-04-22T06:52:29.904Z,98325.16
2023-04-22T06:53:33.647Z,98324.78
2023-04-22T06:54:36.681Z,98324.00
2023-04-22T06:55:38.597Z,98330.25
2023-04-22T06:56:41.443Z,98325.22
2023-04-22T06:57:43.691Z,98335.66
2023-04-22T06:58:46.473Z,98329.81
2023-04-22T06:59:48.284Z,98330.66
2023-04-22T07:00:51.817Z,98339.84
2023-04-22T07:01:53.955Z,98329.66
2023-04-22T07:02:57.580Z,98331.09
2023-04-22T07:03:59.868Z,98323.72
2023-04-22T07:05:02.794Z,98332.09
2023-04-22T07:06:06.745Z,98328.59
2023-04-22T07:07:10.668Z,98330.66
2023-04-22T07:08:12.545Z,98328.41
2023-04-22T07:09:15.550Z,98329.25
2023-04-22T07:10:18.029Z,98328.16
2023-04-22T07:11:40.738Z,98331.59
2023-04-22T07:12:55.902Z,98329.38
2023-04-22T07:13:58.854Z,98329.63
2023-04-22T07:15:00.624Z,98326.75
2023-04-22T07:16:03.437Z,98326.94
2023-04-22T07:17:05.280Z,98321.97
2023-04-22T07:18:08.232Z,98327.41
2023-04-22T07:19:10.030Z,98318.34
2023-04-22T07:20:12.935Z,98326.50
2023-04-22T07:21:16.052Z,98326.44
2023-04-22T07:22:18.794Z,98321.91
2023-04-22T07:23:21.744Z,98324.28
2023-04-22T07:24:24.508Z,98324.56
2023-04-22T07:25:26.295Z,98331.44
2023-04-22T07:26:31.771Z,98329.56
2023-04-22T07:27:35.289Z,98326.44
2023-04-22T07:28:39.973Z,98326.81
2023-04-22T07:29:42.318Z,98334.16
2023-04-22T07:30:46.031Z,98332.28
2023-04-22T07:31:47.871Z,98328.81
2023-04-22T07:32:50.764Z,98335.78
2023-04-22T07:33:52.749Z,98326.53
2023-04-22T07:34:55.555Z,98325.72
2023-04-22T07:35:57.383Z,98323.53
2023-04-22T07:37:01.556Z,98324.88
2023-04-22T07:38:03.337Z,98316.88
2023-04-22T07:39:06.334Z,98325.56
2023-04-22T07:40:11.721Z,98319.31
2023-04-22T07:41:14.598Z,98322.78
2023-04-22T07:42:16.476Z,98320.78
2023-04-22T07:43:19.813Z,98323.72
2023-04-22T07:44:22.986Z,98322.31
2023-04-22T07:45:24.938Z,98326.16
2023-04-22T07:46:27.685Z,98326.56
2023-04-22T07:47:29.494Z,98318.44
2023-04-22T07:48:32.414Z,98321.97
2023-04-22T07:49:34.317Z,98327.22
2023-04-22T07:50:38.731Z,98326.53
2023-04-22T07:51:40.976Z,98325.72
2023-04-22T07:52:45.086Z,98319.69
2023-04-22T07:53:46.924Z,98319.56
2023-04-22T07:54:49.988Z,98323.16
2023-04-22T07:55:52.084Z,98327.81
2023-04-22T07:56:54.813Z,98314.34
2023-04-22T07:57:56.688Z,98321.81
2023-04-22T07:58:59.457Z,98320.41
2023-04-22T08:00:01.922Z,98330.50
2023-04-22T08:01:14.719Z,98319.91
2023-04-22T08:02:16.548Z,98318.00
2023-04-22T08:03:19.474Z,98317.41
2023-04-22T08:04:23.062Z,98310.41
2023-04-22T08:05:26.289Z,98316.59
2023-04-22T08:06:28.268Z,98324.63
2023-04-22T08:07:33.546Z,98318.53
2023-04-22T08:08:36.922Z,98326.69
2023-04-22T08:09:40.051Z,98325.16
2023-04-22T08:10:42.628Z,98315.72
2023-04-22T08:11:45.423Z,98317.78
2023-04-22T08:12:47.240Z,98323.09
2023-04-22T08:13:50.063Z,98322.44
2023-04-22T08:14:51.925Z,98320.34
2023-04-22T08:15:54.788Z,98317.19
2023-04-22T08:16:57.668Z,98315.66
2023-04-22T08:17:59.502Z,98323.38
2023-04-22T08:19:02.257Z,98323.91
2023-04-22T08:20:07.785Z,98317.63
2023-04-22T08:21:11.019Z,98321.59
2023-04-22T08:22:13.586Z,98322.53
2023-04-22T08:23:16.725Z,98322.56
2023-04-22T08:24:19.862Z,98317.28
2023-04-22T08:25:22.643Z,98323.81
2023-04-22T08:26:24.570Z,98321.31
2023-04-22T08:27:27.304Z,98320.81
2023-04-22T08:28:29.170Z,98328.97
2023-04-22T08:29:32.502Z,98319.69
2023-04-22T08:30:34.416Z,98327.94
2023-04-22T08:31:37.866Z,98318.19
2023-04-22T08:32:40.261Z,98322.94
2023-04-22T08:33:43.054Z,98322.56
2023-04-22T08:34:46.578Z,98320.50
2023-04-22T08:35:49.463Z,98317.56
2023-04-22T08:36:51.304Z,98309.78
2023-04-22T08:37:54.062Z,98318.50
2023-04-22T08:38:56.358Z,98311.53
2023-04-22T08:40:00.453Z,98316.66
2023-04-22T08:41:02.779Z,98308.72
2023-04-22T08:42:06.355Z,98311.13
2023-04-22T08:43:08.728Z,98307.22
2023-04-22T08:44:11.673Z,98309.50
2023-04-22T08:45:13.869Z,98309.59
2023-04-22T08:46:16.902Z,98299.88
2023-04-22T08:47:19.971Z,98303.75
2023-04-22T08:48:23.156Z,98304.53
2023-04-22T08:49:25.029Z,98307.78
2023-04-22T08:50:28.059Z,98310.50
2023-04-22T08:51:31.970Z,98308.16
2023-04-22T08:52:34.745Z,98302.81
2023-04-22T08:53:37.544Z,98306.44
2023-04-22T08:54:40.383Z,98303.19
2023-04-22T08:55:44.993Z,98304.69
2023-04-22T08:56:47.858Z,98308.19
2023-04-22T08:57:50.715Z,98299.16
2023-04-22T08:58:54.797Z,98298.09
2023-04-22T08:59:57.626Z,98296.19
2023-04-22T09:00:59.682Z,98297.81
2023-04-22T09:02:03.834Z,98298.03
2023-04-22T09:03:07.074Z,98306.75
2023-04-22T09:04:11.586Z,98298.06
2023-04-22T09:05:14.045Z,98296.09
2023-04-22T09:06:18.459Z,98297.41
2023-04-22T09:07:24.023Z,98290.34
2023-04-22T09:08:27.894Z,98299.88
2023-04-22T09:09:30.827Z,98296.00
2023-04-22T09:10:34.342Z,98293.78
2023-04-22T09:11:37.762Z,98294.84
2023-04-22T09:12:41.819Z,98290.31
2023-04-22T09:13:43.686Z,98296.03
2023-04-22T09:14:46.561Z,98297.31
2023-04-22T09:15:48.307Z,98282.75
2023-04-22T09:16:51.345Z,98296.34
2023-04-22T09:17:53.355Z,98286.34
2023-04-22T09:18:56.627Z,98283.03
2023-04-22T09:19:59.406Z,98284.09
2023-04-22T09:21:02.191Z,98284.91
2023-04-22T09:22:04.422Z,98283.94
2023-04-22T09:23:07.578Z,98284.72
2023-04-22T09:24:11.658Z,98284.25
2023-04-22T09:25:18.606Z,98280.72
2023-04-22T09:26:22.330Z,98281.16
2023-04-22T09:27:26.353Z,98282.06
2023-04-22T09:28:30.832Z,98282.19
2023-04-22T09:29:32.836Z,98283.75
2023-04-22T09:30:37.781Z,98288.38
2023-04-22T09:31:40.800Z,98284.25
2023-04-22T09:32:43.795Z,98280.47
2023-04-22T09:33:50.492Z,98279.31
2023-04-22T09:34:54.698Z,98276.53
2023-04-22T09:35:56.866Z,98271.56
2023-04-22T09:36:59.642Z,98270.75
2023-04-22T09:38:02.856Z,98272.84
2023-04-22T09:39:08.103Z,98274.25
2023-04-22T09:40:10.725Z,98265.41
2023-04-22T09:41:13.519Z,98267.50
2023-04-22T09:42:15.468Z,98278.38
2023-04-22T09:43:21.693Z,98268.66
2023-04-22T09:44:27.964Z,98270.66
2023-04-22T09:45:32.778Z,98265.47
2023-04-22T09:46:35.068Z,98267.56
2023-04-22T09:47:37.933Z,98263.03
2023-04-22T09:48:42.975Z,98255.94
2023-04-22T09:49:47.631Z,98259.25
2023-04-22T09:50:51.320Z,98260.09
2023-04-22T09:51:58.124Z,98250.72
2023-04-22T09:53:01.039Z,98249.94
2023-04-22T09:54:06.471Z,98256.44
2023-04-22T09:55:09.649Z,98258.31
2023-04-22T09:56:12.528Z,98256.59
2023-04-22T09:57:17.153Z,98253.88
2023-04-22T09:58:23.851Z,98252.56
2023-04-22T09:59:28.111Z,98250.56
2023-04-22T10:00:32.264Z,98244.25
2023-04-22T10:01:36.548Z,98242.94
2023-04-22T10:02:39.704Z,98246.75
2023-04-22T10:03:41.745Z,98251.31
2023-04-22T10:04:44.614Z,98238.91
2023-04-22T10:05:46.719Z,98243.47
2023-04-22T10:06:50.309Z,98248.66
2023-04-22T10:07:53.008Z,98236.19
2023-04-22T10:08:56.050Z,98232.59
2023-04-22T10:09:57.853Z,98240.63
2023-04-22T10:11:00.694Z,98248.81
2023-04-22T10:12:03.321Z,98249.19
2023-04-22T10:13:06.796Z,98233.56
2023-04-22T10:14:11.088Z,98238.75
2023-04-22T10:15:13.898Z,98234.41
2023-04-22T10:16:16.181Z,98236.72
2023-04-22T10:17:20.003Z,98242.28
2023-04-22T10:18:23.656Z,98244.81
2023-04-22T10:19:27.948Z,98242.00
2023-04-22T10:20:30.418Z,98231.97
2023-04-22T10:21:33.669Z,98235.44
2023-04-22T10:22:35.915Z,98237.59
2023-04-22T10:23:38.947Z,98235.59
2023-04-22T10:24:42.110Z,98234.50
2023-04-22T10:25:47.654Z,98237.66
2023-04-22T10:26:51.696Z,98230.78
2023-04-22T10:27:55.328Z,98232.91
2023-04-22T10:28:58.710Z,98236.25
2023-04-22T10:30:02.991Z,98234.56
2023-04-22T10:31:07.813Z,98236.09
2023-04-22T10:32:24.561Z,98237.50
2023-04-22T10:33:37.232Z,98234.44
2023-04-22T10:34:39.999Z,98238.03
2023-04-22T10:36:08.694Z,98230.50
2023-04-22T10:37:13.211Z,98230.25
2023-04-22T10:38:16.270Z,98225.16
2023-04-22T10:39:19.151Z,98232.28
2023-04-22T10:40:22.792Z,98228.88
2023-04-22T10:41:26.308Z,98236.09
2023-04-22T10:42:29.633Z,98224.81
2023-04-22T10:43:41.288Z,98227.97
2023-04-22T10:44:49.176Z,98222.41
2023-04-22T10:45:52.377Z,98225.16
2023-04-22T10:47:01.652Z,98227.94
2023-04-22T10:48:04.189Z,98223.66
2023-04-22T10:49:07.885Z,98221.91
2023-04-22T10:50:12.293Z,98216.78
2023-04-22T10:51:39.253Z,98219.22
2023-04-22T10:52:43.553Z,98218.91
2023-04-22T10:53:46.386Z,98216.72
2023-04-22T10:55:01.571Z,98217.63
2023-04-22T10:56:17.904Z,98223.72
2023-04-22T10:57:22.668Z,98219.47
2023-04-22T10:58:26.049Z,98213.09
2023-04-22T10:59:28.140Z,98222.75
2023-04-22T11:00:45.935Z,98221.59
2023-04-22T11:01:55.772Z,98222.03
2023-04-22T11:03:13.757Z,98224.31
2023-04-22T11:04:23.640Z,98218.94
2023-04-22T11:05:27.507Z,98214.53
2023-04-22T11:06:31.116Z,98217.75
2023-04-22T11:07:34.873Z,98213.00
2023-04-22T11:08:37.631Z,98210.34
2023-04-22T11:09:40.202Z,98211.75
2023-04-22T11:10:44.966Z,98205.28
2023-04-22T11:11:47.965Z,98200.97
2023-04-22T11:12:50.867Z,98207.13
2023-04-22T11:13:54.952Z,98203.97
2023-04-22T11:14:56.793Z,98212.59
2023-04-22T11:15:59.802Z,98206.97
2023-04-22T11:17:02.997Z,98204.00
2023-04-22T11:18:09.964Z,98205.69
2023-04-22T11:19:13.001Z,98204.63
2023-04-22T11:20:17.398Z,98195.28
2023-04-22T11:21:21.718Z,98202.91
2023-04-22T11:22:24.049Z,98205.41
2023-04-22T11:23:28.209Z,98207.19
2023-04-22T11:24:30.015Z,98202.25
2023-04-22T11:25:32.926Z,98201.44
2023-04-22T11:26:37.505Z,98205.00
2023-04-22T11:27:40.207Z,98197.84
2023-04-22T11:28:47.080Z,98196.97
2023-04-22T11:30:00.267Z,98183.84
2023-04-22T11:31:04.942Z,98195.22
2023-04-22T11:32:11.243Z,98196.16
2023-04-22T11:33:16.096Z,98197.00
2023-04-22T11:34:18.387Z,98198.53
2023-04-22T11:35:23.253Z,98198.22
2023-04-22T11:36:26.454Z,98197.34
2023-04-22T11:37:29.336Z,98192.69
2023-04-22T11:38:33.079Z,98195.31
2023-04-22T11:39:36.071Z,98188.66
2023-04-22T11:40:46.610Z,98187.06
2023-04-22T11:41:49.140Z,98189.13
2023-04-22T11:42:51.941Z,98183.53
2023-04-22T11:43:55.653Z,98188.91
2023-04-22T11:44:57.615Z,98176.91
2023-04-22T11:46:00.397Z,98188.78
2023-04-22T11:47:02.213Z,98189.16
2023-04-22T11:48:07.428Z,98192.66
2023-04-22T11:49:13.810Z,98186.50
2023-04-22T11:50:17.633Z,98187.97
2023-04-22T11:51:20.445Z,98185.28
2023-04-22T11:52:22.350Z,98188.84
2023-04-22T11:53:25.088Z,98175.31
2023-04-22T11:54:34.197Z,98175.50
2023-04-22T11:55:40.075Z,98176.47
2023-04-22T11:56:41.915Z,98175.75
2023-04-22T11:57:46.676Z,98174.47
2023-04-22T11:58:49.528Z,98184.19
2023-04-22T12:00:01.408Z,98188.22
2023-04-22T12:01:07.549Z,98184.50
2023-04-22T12:02:10.027Z,98180.25
2023-04-22T12:03:18.508Z,98173.50
2023-04-22T12:04:21.692Z,98182.78
2023-04-22T12:05:34.633Z,98178.88
2023-04-22T12:06:36.934Z,98170.91
2023-04-22T12:07:41.380Z,98176.16
2023-04-22T12:08:44.934Z,98170.75
2023-04-22T12:09:46.764Z,98168.97
2023-04-22T12:10:54.667Z,98169.72
2023-04-22T12:11:56.553Z,98169.38
2023-04-22T12:13:01.306Z,98169.03
2023-04-22T12:14:07.452Z,98166.56
2023-04-22T12:15:13.429Z,98165.59
2023-04-22T12:16:19.809Z,98164.59
2023-04-22T12:17:23.492Z,98166.53
2023-04-22T12:18:31.636Z,98168.47
2023-04-22T12:19:33.455Z,98164.69
2023-04-22T12:20:37.587Z,98172.25
2023-04-22T12:21:42.026Z,98163.31
2023-04-22T12:22:44.742Z,98168.34
2023-04-22T12:23:48.782Z,98168.56
2023-04-22T12:24:51.033Z,98168.81
2023-04-22T12:25:53.926Z,98155.72
2023-04-22T12:26:57.407Z,98153.47
2023-04-22T12:28:00.438Z,98154.31
2023-04-22T12:29:03.346Z,98152.50
2023-04-22T12:30:08.145Z,98150.94
2023-04-22T12:31:11.614Z,98156.34
2023-04-22T12:32:13.909Z,98160.38
2023-04-22T12:33:17.161Z,98158.22
2023-04-22T12:34:20.337Z,98153.38